Time;durP1;ratioP1;P1;durP2;ratioP2;P2;SDS_P1;SDS_P2;PMS_P1;PMS_P2;Temp;Humidity;BMP_temperature;BMP_pressure;BME280_temperature;BME280_humidity;BME280_pressure;Samples;Min_cycle;Max_cycle;Signal;HPM_P1;HPM_P2
2021/08/18 00:00:08;;;;;;;;;;;;;;;22.42;43.98;95912.22;1048769;28;1139;-70
2021/08/18 00:00:42;;;;;;;;;;;;;;;22.42;43.97;95909.59;1046642;28;1812;-70
2021/08/18 00:01:12;;;;;;;;;;;;;;;22.42;44.13;95913.00;1048538;28;1134;-69
2021/08/18 00:01:42;;;;;;;;;;;;;;;22.42;44.10;95909.59;1048915;28;981;-70
2021/08/18 00:02:13;;;;;;;;;;;;;;;22.40;44.14;95899.28;1048591;28;1158;-68
2021/08/18 00:02:43;;;;;;;;;;;;;;;22.41;44.18;95913.28;1049014;28;1193;-67
2021/08/18 00:03:14;;;;;;;;;;;;;;;22.42;44.04;95907.72;1044498;28;1769;-68
2021/08/18 00:03:44;;;;;;;;;;;;;;;22.41;44.35;95903.50;1047785;28;2666;-69
2021/08/18 00:04:14;;;;;;;;;;;;;;;22.41;44.11;95906.16;1042690;28;2044;-67
2021/08/18 00:04:45;;;;;;;;;;;;;;;22.40;44.08;95904.56;1043502;28;2869;-67
2021/08/18 00:05:15;;;;;;;;;;;;;;;22.42;44.39;95901.66;1045686;28;2439;-67
2021/08/18 00:05:45;;;;;;;;;;;;;;;22.41;44.27;95903.50;1040796;28;1123;-67
2021/08/18 00:06:16;;;;;;;;;;;;;;;22.42;44.36;95901.66;1044793;28;1220;-68
2021/08/18 00:06:46;;;;;;;;;;;;;;;22.42;43.97;95910.34;1048477;28;1118;-69
2021/08/18 00:07:16;;;;;;;;;;;;;;;22.43;44.20;95911.16;1048475;28;643;-70
2021/08/18 00:07:46;;;;;;;;;;;;;;;22.41;44.19;95908.00;1048717;28;1220;-70
2021/08/18 00:08:17;;;;;;;;;;;;;;;22.40;44.01;95909.84;1049092;28;1224;-69
2021/08/18 00:08:47;;;;;;;;;;;;;;;22.41;44.08;95911.44;1049101;28;1173;-67
2021/08/18 00:09:17;;;;;;;;;;;;;;;22.41;44.24;95910.63;1048464;28;1221;-68
2021/08/18 00:09:48;;;;;;;;;;;;;;;22.40;44.04;95907.19;1048478;28;1402;-68
2021/08/18 00:10:18;;;;;;;;;;;;;;;22.41;43.96;95911.44;1044432;28;2376;-69
2021/08/18 00:10:49;;;;;;;;;;;;;;;22.42;44.24;95912.22;1041918;28;1034;-67
2021/08/18 00:11:19;;;;;;;;;;;;;;;22.40;44.11;95907.19;1048931;28;764;-66
2021/08/18 00:11:49;;;;;;;;;;;;;;;22.41;44.32;95903.50;1048502;28;1188;-69
2021/08/18 00:12:19;;;;;;;;;;;;;;;22.42;44.47;95912.22;1048226;28;1174;-68
2021/08/18 00:12:50;;;;;;;;;;;;;;;22.41;44.28;95908.00;1048666;28;1548;-69
2021/08/18 00:13:22;;;;;;;;;;;;;;;22.40;44.08;95912.50;1046394;28;1935;-69
2021/08/18 00:13:53;;;;;;;;;;;;;;;22.42;44.35;95906.94;1048729;28;1201;-67
2021/08/18 00:14:23;;;;;;;;;;;;;;;22.40;44.39;95909.84;1049182;28;787;-67
2021/08/18 00:14:53;;;;;;;;;;;;;;;22.41;44.42;95905.34;1047604;28;2496;-68
2021/08/18 00:15:24;;;;;;;;;;;;;;;22.40;44.24;95909.84;1044304;28;2112;-67
2021/08/18 00:15:56;;;;;;;;;;;;;;;22.41;43.96;95906.16;1044154;28;1258;-68
2021/08/18 00:16:26;;;;;;;;;;;;;;;22.41;44.10;95911.44;1044834;28;730;-67
2021/08/18 00:16:56;;;;;;;;;;;;;;;22.41;44.08;95913.28;1048640;28;1220;-67
2021/08/18 00:17:27;;;;;;;;;;;;;;;22.41;44.06;95913.28;1048140;28;1126;-70
2021/08/18 00:18:00;;;;;;;;;;;;;;;22.40;44.34;95906.44;1048849;28;1130;-69
2021/08/18 00:18:30;;;;;;;;;;;;;;;22.39;44.11;95903.00;1044498;28;1443;-67
2021/08/18 00:19:00;;;;;;;;;;;;;;;22.40;44.19;95909.84;1040325;28;1364;-68
2021/08/18 00:19:31;;;;;;;;;;;;;;;22.41;44.36;95908.00;1040219;28;1210;-69
2021/08/18 00:20:01;;;;;;;;;;;;;;;22.39;44.04;95905.66;1034600;28;2529;-69
2021/08/18 00:20:31;;;;;;;;;;;;;;;22.40;44.58;95904.56;1040465;28;1006;-69
2021/08/18 00:21:02;;;;;;;;;;;;;;;22.40;43.99;95912.50;1046989;28;1134;-68
2021/08/18 00:21:32;;;;;;;;;;;;;;;22.39;44.07;95908.28;1044115;28;1213;-67
2021/08/18 00:22:02;;;;;;;;;;;;;;;22.39;44.30;95900.38;1048564;28;1765;-70
2021/08/18 00:22:33;;;;;;;;;;;;;;;22.39;44.04;95902.22;1047917;28;1939;-66
2021/08/18 00:23:03;;;;;;;;;;;;;;;22.39;43.95;95904.84;1048716;28;1238;-67
2021/08/18 00:23:33;;;;;;;;;;;;;;;22.39;44.33;95908.28;1049034;28;1189;-68
2021/08/18 00:24:04;;;;;;;;;;;;;;;22.40;44.18;95899.28;1048842;28;1141;-67
2021/08/18 00:24:34;;;;;;;;;;;;;;;22.40;44.05;95909.09;1048757;28;801;-68
2021/08/18 00:25:04;;;;;;;;;;;;;;;22.39;43.98;95903.00;1046664;28;2511;-69
2021/08/18 00:25:35;;;;;;;;;;;;;;;22.39;44.11;95907.50;1044149;28;1061;-68
2021/08/18 00:26:05;;;;;;;;;;;;;;;22.41;44.52;95906.16;1047177;28;1162;-68
2021/08/18 00:26:35;;;;;;;;;;;;;;;22.40;44.48;95899.28;1048687;28;1217;-68
2021/08/18 00:27:05;;;;;;;;;;;;;;;22.40;44.29;95904.56;1043885;28;1393;-70
2021/08/18 00:27:36;;;;;;;;;;;;;;;22.41;44.33;95906.16;1043458;28;1949;-69
2021/08/18 00:28:06;;;;;;;;;;;;;;;22.41;44.29;95908.00;1047225;28;1123;-69
2021/08/18 00:28:36;;;;;;;;;;;;;;;22.40;44.28;95906.44;1048357;28;1143;-67
2021/08/18 00:29:06;;;;;;;;;;;;;;;22.40;43.91;95907.19;1048176;28;1106;-67
2021/08/18 00:29:37;;;;;;;;;;;;;;;22.41;44.05;95902.72;1048557;28;1267;-68
2021/08/18 00:30:07;;;;;;;;;;;;;;;22.39;44.21;95905.66;1046574;28;2591;-69
2021/08/18 00:30:37;;;;;;;;;;;;;;;22.39;44.25;95896.94;1044413;28;940;-68
2021/08/18 00:31:09;;;;;;;;;;;;;;;22.39;44.09;95895.09;1048199;28;1067;-70
2021/08/18 00:31:40;;;;;;;;;;;;;;;22.39;44.23;95902.22;1047991;28;2522;-70
2021/08/18 00:32:10;;;;;;;;;;;;;;;22.39;44.01;95904.84;1048405;28;1035;-67
2021/08/18 00:32:40;;;;;;;;;;;;;;;22.39;44.27;95900.38;1048928;28;804;-68
2021/08/18 00:33:11;;;;;;;;;;;;;;;22.39;44.04;95897.72;1048522;28;1906;-68
2021/08/18 00:33:41;;;;;;;;;;;;;;;22.39;44.12;95896.94;1044686;28;1149;-67
2021/08/18 00:34:11;;;;;;;;;;;;;;;22.39;44.33;95897.72;1045355;28;1194;-68
2021/08/18 00:34:42;;;;;;;;;;;;;;;22.38;44.38;95898.78;1045257;28;1190;-67
2021/08/18 00:35:12;;;;;;;;;;;;;;;22.37;44.12;95896.41;1048471;28;2486;-69
2021/08/18 00:35:42;;;;;;;;;;;;;;;22.39;44.09;95897.72;1045729;28;1002;-67
2021/08/18 00:36:12;;;;;;;;;;;;;;;22.38;44.07;95906.69;1047764;28;1738;-67
2021/08/18 00:36:43;;;;;;;;;;;;;;;22.37;43.99;95899.06;1049713;28;1137;-68
2021/08/18 00:37:13;;;;;;;;;;;;;;;22.37;44.09;95897.22;1049314;28;1252;-69
2021/08/18 00:37:43;;;;;;;;;;;;;;;22.38;44.04;95898.78;1049439;28;1951;-69
2021/08/18 00:38:14;;;;;;;;;;;;;;;22.36;44.31;95903.56;1045307;28;1811;-68
2021/08/18 00:38:44;;;;;;;;;;;;;;;22.36;44.30;95903.56;1049043;28;1360;-68
2021/08/18 00:39:15;;;;;;;;;;;;;;;22.36;44.21;95898.28;1049308;28;779;-67
2021/08/18 00:39:45;;;;;;;;;;;;;;;22.36;44.08;95902.78;1045188;28;1283;-67
2021/08/18 00:40:15;;;;;;;;;;;;;;;22.35;44.25;95906.47;1046513;28;2546;-67
2021/08/18 00:40:45;;;;;;;;;;;;;;;22.35;43.99;95904.63;1040688;28;1213;-67
2021/08/18 00:41:16;;;;;;;;;;;;;;;22.36;44.29;95900.16;1045480;28;831;-67
2021/08/18 00:41:46;;;;;;;;;;;;;;;22.36;44.31;95900.16;1045246;28;1150;-68
2021/08/18 00:42:18;;;;;;;;;;;;;;;22.35;44.14;95902.00;1040820;28;723;-69
2021/08/18 00:42:48;;;;;;;;;;;;;;;22.35;44.07;95895.91;1044971;28;1015;-67
2021/08/18 00:43:18;;;;;;;;;;;;;;;22.34;44.10;95900.41;1041417;28;1155;-68
2021/08/18 00:43:49;;;;;;;;;;;;;;;22.35;44.24;95906.47;1040698;28;1134;-68
2021/08/18 00:44:19;;;;;;;;;;;;;;;22.35;44.15;95898.56;1041353;28;1097;-67
2021/08/18 00:44:49;;;;;;;;;;;;;;;22.35;44.03;95903.84;1036865;28;1143;-70
2021/08/18 00:45:22;;;;;;;;;;;;;;;22.34;44.07;95900.41;1035204;28;2638;-70
2021/08/18 00:45:53;;;;;;;;;;;;;;;22.34;44.23;95894.34;1040997;28;1470;-69
2021/08/18 00:46:23;;;;;;;;;;;;;;;22.35;44.35;95901.19;1040872;28;1887;-68
2021/08/18 00:46:54;;;;;;;;;;;;;;;22.34;44.23;95900.41;1045340;28;1182;-68
2021/08/18 00:47:24;;;;;;;;;;;;;;;22.33;44.17;95893.56;1049024;28;990;-69
2021/08/18 00:47:54;;;;;;;;;;;;;;;22.33;44.34;95898.84;1049755;28;1117;-67
2021/08/18 00:48:25;;;;;;;;;;;;;;;22.33;44.01;95898.06;1049282;28;1444;-69
2021/08/18 00:48:55;;;;;;;;;;;;;;;22.33;44.09;95898.06;1049361;28;1208;-68
2021/08/18 00:49:25;;;;;;;;;;;;;;;22.33;44.25;95898.84;1049275;28;1033;-68
2021/08/18 00:49:56;;;;;;;;;;;;;;;22.33;44.51;95898.06;1045232;28;1253;-68
2021/08/18 00:50:27;;;;;;;;;;;;;;;22.33;44.17;95898.06;1044341;28;2536;-68
2021/08/18 00:50:57;;;;;;;;;;;;;;;22.33;44.36;95898.06;1045186;28;1131;-70
2021/08/18 00:51:27;;;;;;;;;;;;;;;22.35;44.36;95902.00;1045295;28;1198;-69
2021/08/18 00:51:58;;;;;;;;;;;;;;;22.34;44.23;95899.63;1047438;28;1059;-67
2021/08/18 00:52:28;;;;;;;;;;;;;;;22.33;44.24;95901.50;1045131;28;1233;-67
2021/08/18 00:52:58;;;;;;;;;;;;;;;22.34;44.30;95900.41;1045263;28;1186;-68
2021/08/18 00:53:28;;;;;;;;;;;;;;;22.34;44.24;95897.75;1040870;28;1915;-68
2021/08/18 00:53:59;;;;;;;;;;;;;;;22.34;44.24;95897.75;1040720;28;2538;-70
2021/08/18 00:54:29;;;;;;;;;;;;;;;22.35;44.38;95901.19;1046456;28;2312;-67
2021/08/18 00:54:59;;;;;;;;;;;;;;;22.33;44.19;95893.56;1049188;28;1058;-68
2021/08/18 00:55:29;;;;;;;;;;;;;;;22.34;44.35;95903.03;1047863;28;2934;-69
2021/08/18 00:56:00;;;;;;;;;;;;;;;22.34;44.23;95899.63;1049303;28;1110;-69
2021/08/18 00:56:30;;;;;;;;;;;;;;;22.33;44.03;95892.78;1049464;28;1186;-68
2021/08/18 00:57:00;;;;;;;;;;;;;;;22.33;44.17;95903.34;1049336;28;1079;-68
2021/08/18 00:57:31;;;;;;;;;;;;;;;22.33;44.21;95898.84;1048757;28;1108;-68
2021/08/18 00:58:01;;;;;;;;;;;;;;;22.33;44.36;95898.84;1049321;28;1186;-68
2021/08/18 00:58:32;;;;;;;;;;;;;;;22.34;44.14;95900.41;1049458;28;1133;-67
2021/08/18 00:59:02;;;;;;;;;;;;;;;22.32;44.11;95893.81;1045199;28;1334;-71
2021/08/18 00:59:32;;;;;;;;;;;;;;;22.33;44.37;95901.50;1040815;28;1276;-69
2021/08/18 01:00:03;;;;;;;;;;;;;;;22.33;44.29;95903.34;1045030;28;2339;-71
2021/08/18 01:00:33;;;;;;;;;;;;;;;22.32;44.22;95894.63;1042000;28;2172;-67
2021/08/18 01:01:04;;;;;;;;;;;;;;;22.32;44.10;95891.19;1048033;28;1179;-69
2021/08/18 01:01:34;;;;;;;;;;;;;;;22.32;44.44;95896.47;1048548;28;2822;-69
2021/08/18 01:02:05;;;;;;;;;;;;;;;22.32;44.29;95899.91;1049342;28;1185;-71
2021/08/18 01:02:38;;;;;;;;;;;;;;;22.32;44.55;95896.47;1045249;28;1939;-67
2021/08/18 01:03:08;;;;;;;;;;;;;;;22.31;44.34;95900.97;1049330;28;1290;-70
2021/08/18 01:03:39;;;;;;;;;;;;;;;22.32;44.51;95899.09;1049269;28;1091;-69
2021/08/18 01:04:10;;;;;;;;;;;;;;;22.31;44.41;95897.53;1047234;28;2861;-68
2021/08/18 01:04:41;;;;;;;;;;;;;;;22.30;44.31;95894.09;1045438;28;745;-68
2021/08/18 01:05:14;;;;;;;;;;;;;;;22.31;44.42;95902.81;1047741;28;2542;-70
2021/08/18 01:05:44;;;;;;;;;;;;;;;22.31;44.48;95900.19;1044874;28;1230;-69
2021/08/18 01:06:14;;;;;;;;;;;;;;;22.31;44.55;95892.25;1045289;28;1050;-70
2021/08/18 01:06:45;;;;;;;;;;;;;;;22.31;44.25;95895.69;1045626;28;1154;-68
2021/08/18 01:07:15;;;;;;;;;;;;;;;22.30;44.41;95894.09;1049163;28;1190;-67
2021/08/18 01:07:46;;;;;;;;;;;;;;;22.30;44.46;95888.81;1049495;28;1122;-67
2021/08/18 01:08:16;;;;;;;;;;;;;;;22.31;44.40;95892.25;1049805;28;729;-68
2021/08/18 01:08:47;;;;;;;;;;;;;;;22.30;44.29;95891.47;1049167;28;1166;-68
2021/08/18 01:09:17;;;;;;;;;;;;;;;22.31;44.52;95887.78;1049305;28;831;-68
2021/08/18 01:09:48;;;;;;;;;;;;;;;22.31;44.35;95892.25;1045018;28;1402;-70
2021/08/18 01:10:20;;;;;;;;;;;;;;;22.31;44.40;95886.97;1038934;28;2581;-69
2021/08/18 01:10:50;;;;;;;;;;;;;;;22.30;44.64;95883.53;1041521;28;1135;-68
2021/08/18 01:11:21;;;;;;;;;;;;;;;22.30;44.53;95883.53;1044739;28;1939;-68
2021/08/18 01:11:51;;;;;;;;;;;;;;;22.31;44.45;95889.63;1044816;28;1090;-68
2021/08/18 01:12:23;;;;;;;;;;;;;;;22.31;44.71;95885.13;1040407;28;1314;-70
2021/08/18 01:12:53;;;;;;;;;;;;;;;22.29;44.43;95889.13;1038151;28;1590;-70
2021/08/18 01:13:30;;;;;;;;;;;;;;;22.27;44.12;95884.13;1040925;28;1910;-69
2021/08/18 01:14:09;;;;;;;;;;;;;;;22.25;44.13;95896.03;1039562;28;1143;-67
2021/08/18 01:14:41;;;;;;;;;;;;;;;22.22;43.73;95894.72;1039436;28;1321;-68
2021/08/18 01:15:15;;;;;;;;;;;;;;;22.20;43.90;95883.66;1041561;28;2308;-68
2021/08/18 01:15:45;;;;;;;;;;;;;;;22.18;43.67;95891.06;1039132;28;1295;-67
2021/08/18 01:16:18;;;;;;;;;;;;;;;22.16;43.69;95884.50;1040926;28;1322;-69
2021/08/18 01:16:50;;;;;;;;;;;;;;;22.12;43.59;95889.56;1042069;28;1167;-69
2021/08/18 01:17:21;;;;;;;;;;;;;;;22.11;43.75;95890.63;1045436;28;923;-69
2021/08/18 01:17:54;;;;;;;;;;;;;;;22.09;43.76;95884.81;1045782;28;1352;-69
2021/08/18 01:18:24;;;;;;;;;;;;;;;22.06;43.60;95881.97;1044964;28;1209;-69
2021/08/18 01:18:58;;;;;;;;;;;;;;;22.03;43.67;95883.31;1047262;28;1254;-67
2021/08/18 01:19:28;;;;;;;;;;;;;;;22.01;43.56;95890.72;1045683;28;758;-68
2021/08/18 01:20:00;;;;;;;;;;;;;;;21.99;43.80;95882.28;1047975;28;1633;-68
2021/08/18 01:20:34;;;;;;;;;;;;;;;21.99;43.54;95881.53;1043537;28;2494;-69
2021/08/18 01:21:04;;;;;;;;;;;;;;;21.97;43.74;95879.13;1043813;28;1254;-68
2021/08/18 01:21:35;;;;;;;;;;;;;;;21.96;43.74;95880.22;1045330;28;796;-68
2021/08/18 01:22:05;;;;;;;;;;;;;;;21.94;43.51;95885.00;1039976;28;1781;-68
2021/08/18 01:22:35;;;;;;;;;;;;;;;21.94;43.65;95878.91;1041019;28;982;-68
2021/08/18 01:23:06;;;;;;;;;;;;;;;21.92;43.58;95881.84;1044120;28;1226;-70
2021/08/18 01:23:37;;;;;;;;;;;;;;;21.92;43.75;95879.22;1042092;28;1378;-68
2021/08/18 01:24:08;;;;;;;;;;;;;;;21.92;43.78;95883.69;1042163;28;1233;-67
2021/08/18 01:24:38;;;;;;;;;;;;;;;21.90;43.59;95881.34;1045102;28;1089;-69
2021/08/18 01:25:09;;;;;;;;;;;;;;;21.89;43.73;95882.38;1045200;28;1159;-69
2021/08/18 01:25:39;;;;;;;;;;;;;;;21.88;43.53;95886.09;1044475;28;3059;-67
2021/08/18 01:26:09;;;;;;;;;;;;;;;21.87;43.73;95881.88;1044698;28;1045;-67
2021/08/18 01:26:40;;;;;;;;;;;;;;;21.86;43.67;95882.97;1045122;28;781;-67
2021/08/18 01:27:10;;;;;;;;;;;;;;;21.84;43.84;95877.94;1042964;28;1528;-69
2021/08/18 01:27:45;;;;;;;;;;;;;;;21.84;43.54;95885.09;1045153;28;1597;-68
2021/08/18 01:28:15;;;;;;;;;;;;;;;21.85;43.88;95876.09;1037659;28;1353;-70
2021/08/18 01:28:45;;;;;;;;;;;;;;;21.85;43.88;95881.38;1039630;28;1234;-68
2021/08/18 01:29:16;;;;;;;;;;;;;;;21.85;43.92;95881.38;1042095;28;1093;-68
2021/08/18 01:29:46;;;;;;;;;;;;;;;21.84;43.89;95879.81;1044160;28;1961;-69
2021/08/18 01:30:17;;;;;;;;;;;;;;;21.84;43.84;95871.91;1043497;28;2486;-70
2021/08/18 01:30:47;;;;;;;;;;;;;;;21.84;43.74;95874.53;1047687;28;2867;-67
2021/08/18 01:31:18;;;;;;;;;;;;;;;21.83;43.67;95878.22;1049395;28;1033;-67
2021/08/18 01:31:50;;;;;;;;;;;;;;;21.82;43.70;95880.06;1049587;28;1153;-68
2021/08/18 01:32:21;;;;;;;;;;;;;;;21.82;43.75;95879.31;1044691;28;1449;-67
2021/08/18 01:32:52;;;;;;;;;;;;;;;21.81;43.84;95872.41;1044917;28;1307;-67
2021/08/18 01:33:22;;;;;;;;;;;;;;;21.80;43.87;95878.75;1041016;28;1902;-69
2021/08/18 01:33:53;;;;;;;;;;;;;;;21.79;43.62;95877.97;1041384;28;1226;-69
2021/08/18 01:34:23;;;;;;;;;;;;;;;21.79;43.92;95871.91;1045121;28;1501;-68
2021/08/18 01:34:53;;;;;;;;;;;;;;;21.79;43.78;95871.91;1044908;28;1135;-70
2021/08/18 01:35:25;;;;;;;;;;;;;;;21.80;43.70;95878.75;1045107;28;2844;-68
2021/08/18 01:35:56;;;;;;;;;;;;;;;21.78;43.85;95880.91;1046693;28;1341;-69
2021/08/18 01:36:26;;;;;;;;;;;;;;;21.77;43.68;95880.09;1049365;28;982;-69
2021/08/18 01:36:56;;;;;;;;;;;;;;;21.76;43.88;95883.03;1048954;28;1157;-69
2021/08/18 01:37:27;;;;;;;;;;;;;;;21.75;43.72;95878.78;1048444;28;2030;-70
2021/08/18 01:37:57;;;;;;;;;;;;;;;21.75;44.11;95884.06;1046780;28;1425;-69
2021/08/18 01:38:27;;;;;;;;;;;;;;;21.75;44.01;95881.44;1049272;28;1174;-69
2021/08/18 01:39:04;;;;;;;;;;;;;;;21.75;43.87;95881.44;1045478;28;1628;-69
2021/08/18 01:39:34;;;;;;;;;;;;;;;21.73;44.03;95876.44;1045275;28;1957;-67
2021/08/18 01:40:05;;;;;;;;;;;;;;;21.72;44.07;95879.38;1049225;28;1271;-69
2021/08/18 01:40:35;;;;;;;;;;;;;;;21.71;43.98;95881.22;1045371;28;2480;-69
2021/08/18 01:41:05;;;;;;;;;;;;;;;21.71;44.25;95880.41;1048318;28;1106;-68
2021/08/18 01:41:36;;;;;;;;;;;;;;;21.70;44.07;95878.84;1049631;28;1157;-70
2021/08/18 01:42:06;;;;;;;;;;;;;;;21.70;43.75;95879.63;1048659;28;1205;-70
2021/08/18 01:42:37;;;;;;;;;;;;;;;21.71;44.16;95880.41;1049266;28;769;-69
2021/08/18 01:43:07;;;;;;;;;;;;;;;21.72;44.16;95882.00;1049006;28;1138;-70
2021/08/18 01:43:38;;;;;;;;;;;;;;;21.71;44.00;95875.94;1049164;28;1186;-67
2021/08/18 01:44:08;;;;;;;;;;;;;;;21.72;44.36;95882.00;1049618;28;1150;-70
2021/08/18 01:44:38;;;;;;;;;;;;;;;21.73;44.25;95878.28;1049342;28;1117;-69
2021/08/18 01:45:09;;;;;;;;;;;;;;;21.72;44.26;95882.00;1049161;28;1193;-67
2021/08/18 01:45:41;;;;;;;;;;;;;;;21.72;44.29;95884.66;1045433;28;2602;-69
2021/08/18 01:46:12;;;;;;;;;;;;;;;21.73;44.47;95883.56;1044706;28;1197;-67
2021/08/18 01:46:42;;;;;;;;;;;;;;;21.72;44.10;95884.66;1045509;28;832;-68
2021/08/18 01:47:12;;;;;;;;;;;;;;;21.72;44.11;95877.50;1048630;28;1221;-70
2021/08/18 01:47:43;;;;;;;;;;;;;;;21.73;44.24;95883.56;1049294;28;733;-67
2021/08/18 01:48:14;;;;;;;;;;;;;;;21.73;44.51;95888.84;1049202;28;1304;-67
2021/08/18 01:48:44;;;;;;;;;;;;;;;21.73;44.52;95879.09;1048255;28;1785;-70
2021/08/18 01:49:14;;;;;;;;;;;;;;;21.74;44.10;95885.16;1045374;28;871;-70
2021/08/18 01:49:45;;;;;;;;;;;;;;;21.74;44.59;95887.78;1045013;28;1213;-68
2021/08/18 01:50:15;;;;;;;;;;;;;;;21.73;44.17;95889.63;1049522;28;1245;-68
2021/08/18 01:50:46;;;;;;;;;;;;;;;21.72;44.32;95882.00;1044841;28;2943;-68
2021/08/18 01:51:16;;;;;;;;;;;;;;;21.71;44.22;95883.06;1049340;28;1041;-67
2021/08/18 01:51:46;;;;;;;;;;;;;;;21.70;44.35;95884.13;1044671;28;1139;-69
2021/08/18 01:52:16;;;;;;;;;;;;;;;21.70;44.49;95878.84;1044876;28;1067;-67
2021/08/18 01:52:50;;;;;;;;;;;;;;;21.69;44.27;95882.53;1049208;28;1134;-69
2021/08/18 01:53:23;;;;;;;;;;;;;;;21.68;44.33;95888.88;1045563;28;1898;-70
2021/08/18 01:53:54;;;;;;;;;;;;;;;21.68;44.44;95879.13;1048931;28;1145;-69
2021/08/18 01:54:25;;;;;;;;;;;;;;;21.67;44.55;95880.19;1049159;28;2096;-68
2021/08/18 01:54:55;;;;;;;;;;;;;;;21.68;44.43;95875.69;1048728;28;1703;-69
2021/08/18 01:55:25;;;;;;;;;;;;;;;21.66;44.22;95891.78;1047455;28;2539;-70
2021/08/18 01:55:58;;;;;;;;;;;;;;;21.66;44.42;95877.81;1046201;28;1210;-68
2021/08/18 01:56:29;;;;;;;;;;;;;;;21.65;44.57;95881.53;1049251;28;1029;-67
2021/08/18 01:56:59;;;;;;;;;;;;;;;21.63;44.29;95879.16;1049296;28;1141;-70
2021/08/18 01:57:29;;;;;;;;;;;;;;;21.62;44.42;95879.44;1049061;28;1203;-68
2021/08/18 01:57:59;;;;;;;;;;;;;;;21.60;44.32;95873.63;1048267;28;1629;-67
2021/08/18 01:58:30;;;;;;;;;;;;;;;21.61;44.27;95877.88;1047634;28;1090;-69
2021/08/18 01:59:01;;;;;;;;;;;;;;;21.59;44.47;95882.63;1040163;28;1756;-70
2021/08/18 01:59:31;;;;;;;;;;;;;;;21.58;44.57;95876.56;1036620;28;1364;-69
2021/08/18 02:00:03;;;;;;;;;;;;;;;21.60;44.42;95878.91;1035542;28;2502;-68
2021/08/18 02:00:34;;;;;;;;;;;;;;;21.58;44.63;95876.56;1032558;28;2951;-67
2021/08/18 02:01:08;;;;;;;;;;;;;;;21.56;44.45;95876.06;1039686;28;1191;-69
2021/08/18 02:01:38;;;;;;;;;;;;;;;21.56;44.36;95877.91;1045046;28;1151;-68
2021/08/18 02:02:08;;;;;;;;;;;;;;;21.55;44.69;95877.13;1044827;28;1335;-70
2021/08/18 02:02:39;;;;;;;;;;;;;;;21.55;44.64;95873.69;1049281;28;978;-70
2021/08/18 02:03:09;;;;;;;;;;;;;;;21.55;44.64;95874.50;1048521;28;1670;-70
2021/08/18 02:03:39;;;;;;;;;;;;;;;21.54;44.58;95872.09;1045129;28;771;-68
2021/08/18 02:04:10;;;;;;;;;;;;;;;21.53;44.81;95878.47;1038189;28;2541;-68
2021/08/18 02:04:40;;;;;;;;;;;;;;;21.53;44.59;95873.19;1036890;28;789;-70
2021/08/18 02:05:11;;;;;;;;;;;;;;;21.52;44.74;95882.16;1040562;28;1191;-70
2021/08/18 02:05:41;;;;;;;;;;;;;;;21.51;44.73;95876.09;1035838;28;2892;-68
2021/08/18 02:06:11;;;;;;;;;;;;;;;21.52;44.74;95879.50;1044516;28;1107;-69
2021/08/18 02:06:42;;;;;;;;;;;;;;;21.52;44.68;95874.25;1045130;28;740;-70
2021/08/18 02:07:12;;;;;;;;;;;;;;;21.51;44.80;95876.09;1040537;28;1385;-68
2021/08/18 02:07:42;;;;;;;;;;;;;;;21.50;44.74;95874.53;1049160;28;974;-70
2021/08/18 02:08:12;;;;;;;;;;;;;;;21.49;44.74;95872.16;1044555;28;2137;-68
2021/08/18 02:08:43;;;;;;;;;;;;;;;21.49;44.90;95872.97;1045519;28;1221;-67
2021/08/18 02:09:14;;;;;;;;;;;;;;;21.49;44.85;95872.97;1048914;28;1244;-70
2021/08/18 02:09:44;;;;;;;;;;;;;;;21.49;44.71;95872.16;1049187;28;1261;-70
2021/08/18 02:10:14;;;;;;;;;;;;;;;21.48;44.60;95866.09;1049281;28;1114;-69
2021/08/18 02:10:45;;;;;;;;;;;;;;;21.48;44.89;95875.84;1045410;28;2511;-67
2021/08/18 02:11:15;;;;;;;;;;;;;;;21.48;44.84;95870.56;1045091;28;992;-70
2021/08/18 02:11:45;;;;;;;;;;;;;;;21.47;44.82;95872.44;1045118;28;1218;-69
2021/08/18 02:12:16;;;;;;;;;;;;;;;21.47;44.78;95871.66;1044221;28;1237;-67
2021/08/18 02:12:46;;;;;;;;;;;;;;;21.47;44.86;95875.09;1049060;28;1170;-69
2021/08/18 02:13:16;;;;;;;;;;;;;;;21.47;45.08;95874.28;1046120;28;1909;-69
2021/08/18 02:13:46;;;;;;;;;;;;;;;21.46;44.91;95873.50;1047815;28;1147;-68
2021/08/18 02:14:17;;;;;;;;;;;;;;;21.46;44.97;95873.50;1045074;28;899;-69
2021/08/18 02:14:47;;;;;;;;;;;;;;;21.46;44.87;95873.50;1040678;28;1364;-68
2021/08/18 02:15:18;;;;;;;;;;;;;;;21.47;45.01;95874.28;1040976;28;1111;-69
2021/08/18 02:15:49;;;;;;;;;;;;;;;21.46;45.02;95867.44;1044206;28;2476;-69
2021/08/18 02:16:19;;;;;;;;;;;;;;;21.46;45.19;95872.72;1049364;28;768;-67
2021/08/18 02:16:49;;;;;;;;;;;;;;;21.45;44.90;95871.16;1053071;28;1232;-67
2021/08/18 02:17:19;;;;;;;;;;;;;;;21.45;44.86;95871.16;1052694;28;1172;-70
2021/08/18 02:17:50;;;;;;;;;;;;;;;21.44;45.00;95867.72;1045831;28;1750;-70
2021/08/18 02:18:20;;;;;;;;;;;;;;;21.46;45.14;95870.06;1049580;28;1157;-69
2021/08/18 02:18:51;;;;;;;;;;;;;;;21.46;44.91;95862.94;1049152;28;1200;-70
2021/08/18 02:19:21;;;;;;;;;;;;;;;21.46;45.15;95867.44;1049320;28;1021;-68
2021/08/18 02:19:51;;;;;;;;;;;;;;;21.45;44.91;95866.63;1049336;28;1272;-67
2021/08/18 02:20:23;;;;;;;;;;;;;;;21.46;45.12;95864.78;1049431;28;1221;-68
2021/08/18 02:20:54;;;;;;;;;;;;;;;21.45;44.93;95860.59;1046362;28;2223;-69
2021/08/18 02:21:24;;;;;;;;;;;;;;;21.46;45.09;95862.16;1049295;28;682;-68
2021/08/18 02:21:54;;;;;;;;;;;;;;;21.44;45.16;95864.28;1049009;28;1166;-67
2021/08/18 02:22:24;;;;;;;;;;;;;;;21.45;44.87;95865.88;1048784;28;1015;-68
2021/08/18 02:22:55;;;;;;;;;;;;;;;21.43;45.26;95868.00;1049287;28;1134;-68
2021/08/18 02:23:25;;;;;;;;;;;;;;;21.42;45.39;95871.69;1049493;28;1177;-67
2021/08/18 02:23:55;;;;;;;;;;;;;;;21.41;45.23;95865.63;1050994;28;1248;-68
2021/08/18 02:24:25;;;;;;;;;;;;;;;21.41;45.25;95862.22;1049186;28;875;-67
2021/08/18 02:24:56;;;;;;;;;;;;;;;21.41;45.04;95862.22;1047120;28;1158;-67
2021/08/18 02:25:26;;;;;;;;;;;;;;;21.41;45.21;95859.56;1039930;28;2519;-71
2021/08/18 02:25:56;;;;;;;;;;;;;;;21.41;45.03;95854.31;1040588;28;2243;-68
2021/08/18 02:26:27;;;;;;;;;;;;;;;21.41;45.11;95864.84;1049206;28;1029;-67
2021/08/18 02:26:57;;;;;;;;;;;;;;;21.39;45.24;95861.69;1044273;28;1607;-69
2021/08/18 02:27:27;;;;;;;;;;;;;;;21.39;45.19;95861.69;1048466;28;1166;-66
2021/08/18 02:27:57;;;;;;;;;;;;;;;21.38;45.37;95860.09;1049102;28;1210;-67
2021/08/18 02:28:28;;;;;;;;;;;;;;;21.37;45.20;95859.31;1040940;28;1307;-68
2021/08/18 02:28:58;;;;;;;;;;;;;;;21.37;45.25;95858.56;1042478;28;2805;-68
2021/08/18 02:29:28;;;;;;;;;;;;;;;21.37;45.38;95858.56;1044845;28;795;-68
2021/08/18 02:29:58;;;;;;;;;;;;;;;21.37;45.33;95858.56;1044870;28;1311;-69
2021/08/18 02:30:29;;;;;;;;;;;;;;;21.37;45.22;95867.22;1048479;28;2569;-69
2021/08/18 02:30:59;;;;;;;;;;;;;;;21.37;45.22;95859.31;1047174;28;2198;-67
2021/08/18 02:31:30;;;;;;;;;;;;;;;21.37;45.26;95858.56;1049043;28;912;-68
2021/08/18 02:32:01;;;;;;;;;;;;;;;21.38;45.49;95862.75;1048981;28;1193;-70
2021/08/18 02:32:31;;;;;;;;;;;;;;;21.37;45.27;95863.81;1048326;28;1035;-70
2021/08/18 02:33:01;;;;;;;;;;;;;;;21.36;45.24;95860.41;1049027;28;1118;-69
2021/08/18 02:33:32;;;;;;;;;;;;;;;21.37;45.43;95861.94;1044738;28;2247;-69
2021/08/18 02:34:02;;;;;;;;;;;;;;;21.37;45.26;95858.56;1044882;28;1406;-69
2021/08/18 02:34:33;;;;;;;;;;;;;;;21.37;45.46;95861.19;1045061;28;825;-68
2021/08/18 02:35:03;;;;;;;;;;;;;;;21.37;45.26;95859.31;1044628;28;1387;-69
2021/08/18 02:35:33;;;;;;;;;;;;;;;21.37;45.29;95855.91;1044210;28;2476;-69
2021/08/18 02:36:04;;;;;;;;;;;;;;;21.37;45.31;95861.19;1048886;28;1122;-68
2021/08/18 02:36:34;;;;;;;;;;;;;;;21.37;45.56;95861.19;1047894;28;1784;-67
2021/08/18 02:37:04;;;;;;;;;;;;;;;21.37;45.57;95863.81;1048477;28;1245;-70
2021/08/18 02:37:35;;;;;;;;;;;;;;;21.37;45.33;95855.91;1047306;28;1638;-68
2021/08/18 02:38:05;;;;;;;;;;;;;;;21.38;45.40;95860.09;1048117;28;1526;-69
2021/08/18 02:38:35;;;;;;;;;;;;;;;21.37;45.51;95858.56;1049056;28;1394;-69
2021/08/18 02:39:06;;;;;;;;;;;;;;;21.36;45.53;95863.03;1048816;28;1138;-70
2021/08/18 02:39:36;;;;;;;;;;;;;;;21.35;45.36;95860.69;1044749;28;1335;-68
2021/08/18 02:40:07;;;;;;;;;;;;;;;21.36;45.47;95862.25;1044897;28;1202;-69
2021/08/18 02:40:38;;;;;;;;;;;;;;;21.36;45.57;95856.97;1047219;28;2496;-68
2021/08/18 02:41:08;;;;;;;;;;;;;;;21.36;45.41;95854.31;1048346;28;1092;-67
2021/08/18 02:41:38;;;;;;;;;;;;;;;21.37;45.51;95855.91;1049263;28;1122;-69